createdAt,value
2018-10-19T00:01:14.937Z,2.73
2018-10-19T00:03:42.761Z,3.10
2018-10-19T00:06:10.518Z,2.70
2018-10-19T00:08:38.292Z,2.70
2018-10-19T00:11:06.101Z,2.77
2018-10-19T00:13:33.834Z,2.40
2018-10-19T00:16:02.019Z,3.00
2018-10-19T00:18:29.792Z,2.57
2018-10-19T00:20:57.612Z,2.63
2018-10-19T00:23:25.388Z,2.67
2018-10-19T00:25:53.196Z,2.43
2018-10-19T00:28:21.000Z,2.87
2018-10-19T00:30:48.797Z,2.63
2018-10-19T00:33:16.609Z,2.37
2018-10-19T00:35:44.443Z,2.47
2018-10-19T00:38:12.245Z,2.67
2018-10-19T00:40:40.045Z,2.80
2018-10-19T00:43:07.804Z,2.70
2018-10-19T00:45:41.453Z,3.10
2018-10-19T00:48:14.481Z,2.70
2018-10-19T00:50:42.669Z,3.03
2018-10-19T00:53:11.697Z,3.00
2018-10-19T00:55:40.021Z,3.00
2018-10-19T00:58:08.084Z,2.50
2018-10-19T01:00:41.173Z,2.80
2018-10-19T01:03:09.747Z,2.40
2018-10-19T01:05:38.854Z,2.60
2018-10-19T01:08:08.210Z,2.40
2018-10-19T01:10:36.296Z,2.90
2018-10-19T01:13:04.807Z,2.90
2018-10-19T01:15:32.922Z,2.70
2018-10-19T01:18:01.130Z,2.80
2018-10-19T01:20:29.189Z,2.57
2018-10-19T01:22:57.240Z,3.00
2018-10-19T01:25:25.292Z,2.97
2018-10-19T01:27:53.456Z,3.00
2018-10-19T01:30:22.929Z,2.67
2018-10-19T01:32:50.928Z,3.00
2018-10-19T01:35:19.617Z,2.87
2018-10-19T01:37:47.536Z,2.50
2018-10-19T01:40:15.540Z,2.83
2018-10-19T01:42:43.624Z,2.97
2018-10-19T01:45:12.419Z,2.80
2018-10-19T01:47:41.012Z,2.67
2018-10-19T01:50:09.649Z,3.17
2018-10-19T01:52:38.666Z,2.87
2018-10-19T01:55:07.656Z,3.20
2018-10-19T01:57:35.474Z,3.13
2018-10-19T02:00:03.522Z,2.80
2018-10-19T02:02:31.457Z,2.90
2018-10-19T02:05:00.295Z,3.23
2018-10-19T02:07:28.021Z,3.40
2018-10-19T02:09:56.766Z,3.47
2018-10-19T02:12:24.530Z,2.80
2018-10-19T02:14:52.543Z,3.23
2018-10-19T02:17:20.390Z,3.07
2018-10-19T02:19:48.177Z,3.17
2018-10-19T02:22:18.242Z,2.63
2018-10-19T02:24:46.024Z,2.87
2018-10-19T02:27:14.010Z,2.63
2018-10-19T02:29:41.996Z,3.27
2018-10-19T02:32:09.788Z,2.70
2018-10-19T02:34:37.597Z,2.97
2018-10-19T02:37:05.789Z,2.93
2018-10-19T02:39:33.534Z,3.13
2018-10-19T02:42:01.307Z,2.83
2018-10-19T02:44:29.143Z,3.03
2018-10-19T02:46:56.945Z,2.90
2018-10-19T02:49:24.707Z,3.37
2018-10-19T02:51:52.511Z,3.30
2018-10-19T02:54:20.301Z,3.63
2018-10-19T02:56:48.094Z,3.10
2018-10-19T02:59:15.886Z,3.53
2018-10-19T03:01:43.687Z,3.80
2018-10-19T03:04:11.427Z,4.37
2018-10-19T03:06:39.181Z,4.13
2018-10-19T03:09:08.687Z,4.63
2018-10-19T03:11:36.420Z,4.90
2018-10-19T03:14:04.253Z,5.67
2018-10-19T03:16:31.997Z,5.47
2018-10-19T03:18:59.765Z,5.93
2018-10-19T03:21:29.753Z,6.13
2018-10-19T03:23:57.561Z,5.37
2018-10-19T03:26:25.334Z,5.80
2018-10-19T03:28:53.850Z,5.63
2018-10-19T03:31:21.712Z,5.97
2018-10-19T03:33:49.509Z,5.90
2018-10-19T03:36:17.290Z,6.13
2018-10-19T03:38:45.055Z,6.00
2018-10-19T03:41:12.844Z,6.70
2018-10-19T03:43:40.592Z,6.50
2018-10-19T03:46:08.347Z,7.27
2018-10-19T03:48:36.136Z,6.43
2018-10-19T03:51:06.555Z,6.33
2018-10-19T03:53:34.294Z,6.60
2018-10-19T03:56:02.086Z,6.70
2018-10-19T03:58:29.884Z,7.10
2018-10-19T04:00:57.622Z,7.10
2018-10-19T04:03:25.486Z,7.03
2018-10-19T04:05:53.259Z,7.17
2018-10-19T04:08:21.017Z,7.33
2018-10-19T04:10:48.796Z,6.70
2018-10-19T04:13:16.551Z,7.00
2018-10-19T04:15:45.356Z,7.30
2018-10-19T04:18:13.367Z,7.57
2018-10-19T04:20:41.143Z,7.17
2018-10-19T04:23:09.605Z,7.13
2018-10-19T04:25:38.576Z,6.40
2018-10-19T04:28:06.409Z,7.33
2018-10-19T04:30:35.629Z,7.23
2018-10-19T04:33:03.706Z,7.47
2018-10-19T04:35:31.509Z,7.10
2018-10-19T04:37:59.272Z,6.57
2018-10-19T04:40:27.049Z,7.20
2018-10-19T04:42:55.401Z,6.67
2018-10-19T04:45:23.262Z,7.47
2018-10-19T04:47:51.236Z,7.50
2018-10-19T04:50:20.457Z,7.53
2018-10-19T04:52:48.227Z,7.40
2018-10-19T04:55:19.305Z,7.73
2018-10-19T04:57:47.125Z,6.70
2018-10-19T05:00:16.775Z,7.40
2018-10-19T05:02:44.707Z,8.07
2018-10-19T05:05:17.783Z,8.10
2018-10-19T05:07:45.605Z,7.57
2018-10-19T05:10:13.530Z,8.17
2018-10-19T05:12:41.577Z,7.43
2018-10-19T05:15:13.261Z,8.53
2018-10-19T05:17:41.089Z,8.83
2018-10-19T05:20:10.628Z,8.63
2018-10-19T05:22:38.638Z,8.10
2018-10-19T05:25:08.255Z,8.13
2018-10-19T05:27:36.178Z,7.70
2018-10-19T05:30:04.451Z,8.53
2018-10-19T05:32:32.241Z,7.83
2018-10-19T05:35:00.992Z,7.70
2018-10-19T05:37:29.403Z,8.07
2018-10-19T05:39:57.204Z,8.83
2018-10-19T05:42:25.004Z,8.90
2018-10-19T05:44:52.812Z,8.90
2018-10-19T05:47:20.793Z,8.37
2018-10-19T05:49:48.617Z,9.77
2018-10-19T05:52:16.436Z,9.57
2018-10-19T05:54:44.163Z,9.50
2018-10-19T05:57:12.075Z,8.93
2018-10-19T05:59:39.825Z,9.47
2018-10-19T06:02:07.823Z,9.50
2018-10-19T06:04:35.483Z,9.07
2018-10-19T06:07:03.292Z,9.17
2018-10-19T06:09:31.083Z,10.00
2018-10-19T06:11:58.854Z,10.30
2018-10-19T06:14:26.637Z,10.13
2018-10-19T06:16:55.268Z,10.30
2018-10-19T06:19:23.054Z,9.87
2018-10-19T06:21:50.901Z,10.23
2018-10-19T06:24:18.705Z,10.33
2018-10-19T06:26:46.617Z,11.27
2018-10-19T06:29:14.460Z,10.87
2018-10-19T06:31:42.312Z,10.23
2018-10-19T06:34:10.117Z,10.57
2018-10-19T06:36:37.882Z,10.63
2018-10-19T06:39:08.323Z,11.23
2018-10-19T06:41:36.172Z,10.37
2018-10-19T06:44:04.324Z,10.83
2018-10-19T06:46:32.152Z,10.93
2018-10-19T06:48:59.967Z,10.40
2018-10-19T06:51:27.749Z,10.97
2018-10-19T06:53:55.555Z,10.33
2018-10-19T06:56:23.300Z,10.90
2018-10-19T06:58:51.072Z,11.20
2018-10-19T07:01:18.889Z,10.93
2018-10-19T07:03:46.648Z,11.27
2018-10-19T07:06:14.490Z,12.37
2018-10-19T07:08:42.445Z,12.00
2018-10-19T07:11:10.240Z,11.90
2018-10-19T07:13:37.986Z,12.90
2018-10-19T07:16:05.797Z,13.97
2018-10-19T07:18:35.136Z,15.07
2018-10-19T07:21:02.991Z,15.23
2018-10-19T07:23:30.765Z,21.27
2018-10-19T07:25:58.611Z,23.43
2018-10-19T07:28:26.415Z,24.63
2018-10-19T07:30:54.194Z,26.37
2018-10-19T07:33:21.963Z,27.20
2018-10-19T07:35:49.885Z,27.40
2018-10-19T07:38:17.679Z,26.83
2018-10-19T07:40:45.458Z,27.30
2018-10-19T07:43:13.197Z,27.67
2018-10-19T07:45:40.966Z,27.10
2018-10-19T07:48:08.919Z,26.53
2018-10-19T07:50:36.552Z,29.23
2018-10-19T07:53:04.746Z,29.33
2018-10-19T07:55:32.483Z,28.33
2018-10-19T07:58:00.242Z,28.43
2018-10-19T08:00:28.022Z,29.53
2018-10-19T08:02:55.930Z,28.93
2018-10-19T08:05:23.788Z,29.00
2018-10-19T08:07:51.557Z,30.33
2018-10-19T08:10:20.087Z,30.10
2018-10-19T08:12:47.893Z,32.33
2018-10-19T08:15:16.781Z,29.83
2018-10-19T08:17:44.584Z,31.27
2018-10-19T08:22:39.760Z,29.70
2018-10-19T08:25:07.616Z,30.17
2018-10-19T08:27:35.421Z,29.80
2018-10-19T08:30:03.289Z,30.27
2018-10-19T08:32:31.083Z,31.63
2018-10-19T08:34:58.858Z,32.37
2018-10-19T08:37:26.806Z,32.77
2018-10-19T08:39:55.797Z,34.67
2018-10-19T08:42:23.621Z,35.00
2018-10-19T08:44:53.477Z,33.93
2018-10-19T08:47:21.416Z,33.07
2018-10-19T08:49:49.388Z,33.87
2018-10-19T08:52:17.193Z,33.27
2018-10-19T08:54:45.071Z,33.37
2018-10-19T08:57:12.959Z,34.20
2018-10-19T08:59:40.693Z,32.37
2018-10-19T09:02:08.488Z,33.27
2018-10-19T09:04:38.149Z,33.17
2018-10-19T09:07:05.962Z,32.63
2018-10-19T09:09:33.714Z,32.80
2018-10-19T09:12:01.431Z,32.40
2018-10-19T09:14:45.331Z,31.13
2018-10-19T09:17:13.231Z,33.30
2018-10-19T09:19:40.965Z,32.47
2018-10-19T09:22:08.843Z,31.97
2018-10-19T09:24:37.665Z,30.87
2018-10-19T09:27:05.568Z,32.30
2018-10-19T09:29:33.430Z,32.87
2018-10-19T09:32:01.797Z,32.43
2018-10-19T09:34:29.604Z,32.63
2018-10-19T09:36:57.402Z,33.37
2018-10-19T09:39:25.188Z,32.63
2018-10-19T09:41:53.079Z,32.30
2018-10-19T09:44:20.826Z,30.80
2018-10-19T09:46:48.557Z,31.87
2018-10-19T09:49:16.330Z,30.90
2018-10-19T09:51:44.098Z,30.40
2018-10-19T09:54:15.061Z,29.83
2018-10-19T09:56:42.957Z,30.53
2018-10-19T09:59:10.840Z,29.87
2018-10-19T10:01:39.509Z,29.97
2018-10-19T10:04:07.403Z,29.73
2018-10-19T10:06:35.242Z,30.23
2018-10-19T10:09:04.360Z,30.53
2018-10-19T10:11:32.137Z,29.90
2018-10-19T10:13:59.933Z,29.57
2018-10-19T10:16:27.717Z,27.90
2018-10-19T10:18:55.878Z,28.27
2018-10-19T10:21:23.687Z,29.17
2018-10-19T10:23:51.491Z,28.70
2018-10-19T10:26:19.397Z,29.37
2018-10-19T10:28:47.215Z,29.30
2018-10-19T10:31:15.059Z,28.90
2018-10-19T10:33:43.761Z,28.70
2018-10-19T10:36:11.523Z,27.83
2018-10-19T10:38:39.381Z,30.03
2018-10-19T10:41:08.255Z,27.87
2018-10-19T10:43:36.036Z,27.77
2018-10-19T10:48:30.760Z,29.47
2018-10-19T10:50:58.529Z,29.43
2018-10-19T10:53:26.300Z,28.90
2018-10-19T10:55:54.081Z,30.13
2018-10-19T10:58:21.869Z,29.53
2018-10-19T11:00:49.717Z,29.50
2018-10-19T11:03:17.523Z,30.27
2018-10-19T11:05:45.553Z,29.87
2018-10-19T11:08:13.410Z,30.63
2018-10-19T11:10:41.803Z,30.60
2018-10-19T11:13:09.689Z,30.43
2018-10-19T11:15:38.105Z,30.40
2018-10-19T11:18:06.275Z,29.63
2018-10-19T11:20:34.179Z,28.73
2018-10-19T11:23:02.127Z,28.03
2018-10-19T11:25:29.954Z,28.73
2018-10-19T11:27:57.772Z,28.70
2018-10-19T11:30:25.509Z,27.80
2018-10-19T11:32:53.368Z,29.03
2018-10-19T11:35:21.187Z,27.57
2018-10-19T11:37:49.570Z,27.70
2018-10-19T11:40:27.453Z,27.23
2018-10-19T11:42:55.957Z,27.83
2018-10-19T11:45:25.167Z,26.50
2018-10-19T11:47:53.013Z,25.90
2018-10-19T11:50:20.861Z,27.27
2018-10-19T11:52:48.977Z,26.03
2018-10-19T11:55:16.837Z,25.73
2018-10-19T11:57:44.933Z,26.73
2018-10-19T12:00:12.804Z,25.90
2018-10-19T12:02:40.712Z,27.13
2018-10-19T12:05:08.832Z,26.43
2018-10-19T12:07:37.077Z,25.23
2018-10-19T12:10:06.274Z,26.80
2018-10-19T12:12:34.297Z,25.80
2018-10-19T12:15:02.257Z,26.60
2018-10-19T12:17:30.053Z,24.67
2018-10-19T12:19:57.899Z,25.10
2018-10-19T12:22:25.717Z,25.63
2018-10-19T12:24:53.499Z,24.50
2018-10-19T12:27:21.272Z,25.50
2018-10-19T12:29:49.181Z,25.17
2018-10-19T12:32:17.985Z,24.17
2018-10-19T12:34:46.021Z,23.07
2018-10-19T12:37:13.902Z,23.40
2018-10-19T12:39:41.657Z,22.53
2018-10-19T12:42:10.341Z,23.23
2018-10-19T12:44:39.249Z,23.00
2018-10-19T12:47:18.391Z,23.30
2018-10-19T12:49:46.269Z,23.03
2018-10-19T12:52:14.139Z,22.67
2018-10-19T12:54:41.910Z,22.57
2018-10-19T12:57:10.020Z,23.20
2018-10-19T12:59:37.859Z,25.40
2018-10-19T13:02:10.357Z,25.00
2018-10-19T13:04:39.165Z,24.50
2018-10-19T13:07:07.550Z,24.30
2018-10-19T13:09:35.373Z,24.80
2018-10-19T13:12:03.419Z,24.70
2018-10-19T13:14:31.360Z,23.77
2018-10-19T13:16:59.149Z,23.90
2018-10-19T13:19:26.952Z,22.77
2018-10-19T13:21:54.996Z,23.20
2018-10-19T13:24:23.038Z,22.53
2018-10-19T13:26:50.932Z,24.57
2018-10-19T13:29:18.761Z,22.93
2018-10-19T13:31:47.209Z,22.60
2018-10-19T13:34:15.166Z,22.60
2018-10-19T13:36:43.650Z,22.97
2018-10-19T13:39:12.882Z,21.77
2018-10-19T13:41:41.253Z,22.03
2018-10-19T13:44:09.237Z,23.30
2018-10-19T13:46:37.139Z,21.57
2018-10-19T13:49:05.229Z,22.03
2018-10-19T13:51:33.888Z,20.63
2018-10-19T13:54:01.694Z,21.83
2018-10-19T13:56:29.695Z,23.53
2018-10-19T13:58:57.521Z,22.23
2018-10-19T14:01:25.367Z,22.87
2018-10-19T14:03:53.185Z,23.17
2018-10-19T14:06:21.037Z,23.40
2018-10-19T14:08:48.898Z,23.83
2018-10-19T14:11:16.800Z,23.47
2018-10-19T14:13:44.690Z,22.97
2018-10-19T14:16:12.525Z,22.17
2018-10-19T14:18:40.496Z,21.30
2018-10-19T14:21:08.365Z,20.50
2018-10-19T14:23:36.180Z,20.73
2018-10-19T14:26:04.025Z,20.87
2018-10-19T14:28:31.865Z,20.73
2018-10-19T14:30:59.701Z,19.93
2018-10-19T14:33:29.191Z,21.67
2018-10-19T14:35:56.857Z,20.53
2018-10-19T14:38:24.809Z,21.43
2018-10-19T14:40:52.684Z,19.17
2018-10-19T14:43:21.601Z,19.57
2018-10-19T14:45:50.244Z,19.77
2018-10-19T14:48:18.213Z,19.60
2018-10-19T14:50:46.287Z,18.50
2018-10-19T14:53:14.398Z,18.23
2018-10-19T14:55:42.307Z,18.90
2018-10-19T14:58:11.876Z,19.10
2018-10-19T15:00:39.711Z,18.53
2018-10-19T15:03:07.666Z,18.33
2018-10-19T15:05:35.660Z,18.43
2018-10-19T15:08:03.559Z,18.63
2018-10-19T15:10:31.953Z,17.57
2018-10-19T15:12:59.832Z,17.07
2018-10-19T15:15:27.702Z,16.53
2018-10-19T15:17:55.573Z,16.77
2018-10-19T15:20:23.751Z,16.60
2018-10-19T15:22:51.616Z,16.90
2018-10-19T15:25:19.486Z,15.97
2018-10-19T15:27:47.370Z,17.00
2018-10-19T15:30:18.529Z,17.20
2018-10-19T15:32:47.607Z,17.07
2018-10-19T15:35:16.476Z,16.90
2018-10-19T15:37:44.258Z,17.40
2018-10-19T15:40:12.269Z,17.10
2018-10-19T15:42:41.069Z,16.53
2018-10-19T15:45:14.764Z,17.70
2018-10-19T15:47:43.659Z,17.23
2018-10-19T15:50:11.797Z,17.43
2018-10-19T15:52:39.739Z,17.03
2018-10-19T15:55:07.788Z,17.33
2018-10-19T15:57:36.192Z,18.43
2018-10-19T16:00:04.193Z,18.33
2018-10-19T16:02:31.994Z,17.37
2018-10-19T16:05:00.222Z,18.33
2018-10-19T16:07:28.083Z,19.20
2018-10-19T16:09:56.032Z,19.00
2018-10-19T16:12:23.875Z,18.83
2018-10-19T16:14:51.652Z,19.07
2018-10-19T16:17:19.483Z,19.20
2018-10-19T16:19:47.283Z,20.90
2018-10-19T16:22:15.085Z,20.40
2018-10-19T16:24:42.880Z,20.50
2018-10-19T16:27:10.788Z,19.67
2018-10-19T16:29:38.783Z,19.03
2018-10-19T16:32:07.207Z,18.97
2018-10-19T16:34:35.662Z,19.17
2018-10-19T16:37:03.871Z,22.00
2018-10-19T16:39:31.759Z,19.47
2018-10-19T16:41:59.722Z,20.43
2018-10-19T16:44:27.648Z,19.90
2018-10-19T16:46:55.762Z,20.10
2018-10-19T16:49:23.755Z,18.93
2018-10-19T16:51:55.666Z,19.80
2018-10-19T16:54:28.869Z,19.10
2018-10-19T16:56:56.739Z,19.40
2018-10-19T16:59:24.631Z,18.93
2018-10-19T17:01:52.568Z,17.90
2018-10-19T17:04:21.009Z,17.80
2018-10-19T17:06:49.038Z,17.77
2018-10-19T17:09:17.000Z,17.83
2018-10-19T17:11:44.958Z,17.67
2018-10-19T17:14:16.421Z,18.10
2018-10-19T17:16:44.573Z,17.70
2018-10-19T17:19:12.476Z,17.23
2018-10-19T17:21:40.335Z,16.03
2018-10-19T17:24:08.202Z,15.43
2018-10-19T17:26:36.853Z,15.17
2018-10-19T17:29:04.793Z,14.87
2018-10-19T17:31:32.841Z,15.37
2018-10-19T17:34:00.735Z,14.60
2018-10-19T17:36:28.577Z,14.27
2018-10-19T17:38:56.519Z,14.63
2018-10-19T17:41:24.348Z,14.33
2018-10-19T17:43:53.099Z,14.27
2018-10-19T17:46:20.967Z,14.33
2018-10-19T17:48:48.789Z,13.47
2018-10-19T17:51:16.627Z,14.07
2018-10-19T17:53:45.488Z,12.67
2018-10-19T17:56:13.298Z,13.70
2018-10-19T17:58:41.109Z,13.37
2018-10-19T18:01:08.964Z,12.80
2018-10-19T18:03:36.859Z,13.53
2018-10-19T18:06:05.491Z,13.70
2018-10-19T18:08:33.376Z,12.73
2018-10-19T18:11:01.478Z,13.77
2018-10-19T18:13:29.280Z,12.43
2018-10-19T18:15:57.151Z,12.47
2018-10-19T18:18:25.042Z,13.13
2018-10-19T18:20:52.927Z,12.50
2018-10-19T18:23:20.964Z,13.27
2018-10-19T18:25:48.642Z,12.50
2018-10-19T18:28:16.494Z,13.40
2018-10-19T18:30:44.356Z,13.17
2018-10-19T18:33:17.638Z,13.33
2018-10-19T18:35:46.052Z,13.00
2018-10-19T18:38:13.903Z,12.93
2018-10-19T18:40:41.774Z,13.37
2018-10-19T18:43:09.557Z,12.80
2018-10-19T18:45:37.360Z,13.13
2018-10-19T18:48:05.198Z,13.50
2018-10-19T18:50:33.054Z,14.00
2018-10-19T18:53:02.050Z,12.90
2018-10-19T18:55:30.643Z,13.10
2018-10-19T18:57:58.525Z,12.77
2018-10-19T19:00:26.307Z,13.50
2018-10-19T19:02:54.202Z,13.87
2018-10-19T19:05:22.076Z,13.83
2018-10-19T19:07:49.931Z,12.33
2018-10-19T19:10:19.537Z,13.27
2018-10-19T19:12:47.373Z,12.50
2018-10-19T19:15:16.426Z,13.77
2018-10-19T19:17:44.365Z,13.43
2018-10-19T19:20:17.925Z,14.03
2018-10-19T19:22:45.718Z,13.67
2018-10-19T19:25:19.200Z,13.00
2018-10-19T19:27:46.972Z,12.73
2018-10-19T19:30:14.863Z,13.70
2018-10-19T19:32:49.427Z,12.70
2018-10-19T19:35:17.257Z,12.80
2018-10-19T19:37:45.816Z,13.23
2018-10-19T19:40:13.690Z,12.90
2018-10-19T19:42:45.417Z,13.20
2018-10-19T19:45:13.254Z,14.10
2018-10-19T19:47:46.529Z,12.40
2018-10-19T19:50:14.377Z,12.80
2018-10-19T19:52:42.221Z,12.53
2018-10-19T19:55:10.040Z,12.87
2018-10-19T19:57:38.698Z,12.93
2018-10-19T20:00:06.771Z,12.67
2018-10-19T20:02:34.778Z,13.03
2018-10-19T20:05:03.112Z,13.47
2018-10-19T20:07:31.108Z,12.67
2018-10-19T20:09:59.252Z,12.87
2018-10-19T20:12:27.100Z,13.10
2018-10-19T20:14:55.060Z,13.20
2018-10-19T20:17:23.350Z,12.90
2018-10-19T20:19:51.154Z,12.90
2018-10-19T20:22:18.939Z,12.00
2018-10-19T20:24:47.998Z,12.80
2018-10-19T20:27:15.834Z,12.53
2018-10-19T20:29:43.690Z,12.97
2018-10-19T20:32:11.608Z,13.20
2018-10-19T20:34:39.352Z,11.93
2018-10-19T20:37:07.208Z,12.20
2018-10-19T20:39:34.987Z,12.70
2018-10-19T20:42:02.832Z,13.10
2018-10-19T20:44:30.615Z,12.70
2018-10-19T20:46:58.398Z,13.43
2018-10-19T20:49:26.201Z,12.23
2018-10-19T20:51:54.022Z,13.10
2018-10-19T20:54:21.837Z,14.57
2018-10-19T20:56:49.607Z,15.07
2018-10-19T20:59:17.401Z,14.63
2018-10-19T21:01:45.238Z,13.70
2018-10-19T21:04:14.204Z,13.70
2018-10-19T21:06:42.373Z,13.77
2018-10-19T21:09:10.922Z,13.30
2018-10-19T21:11:39.201Z,14.13
2018-10-19T21:14:07.390Z,14.13
2018-10-19T21:16:35.115Z,13.27
2018-10-19T21:19:02.974Z,13.13
2018-10-19T21:21:30.768Z,12.90
2018-10-19T21:23:58.547Z,12.83
2018-10-19T21:26:26.443Z,13.10
2018-10-19T21:28:54.241Z,12.50
2018-10-19T21:31:22.710Z,13.67
2018-10-19T21:33:50.562Z,12.70
2018-10-19T21:36:18.422Z,12.57
2018-10-19T21:38:46.276Z,12.33
2018-10-19T21:41:14.144Z,13.80
2018-10-19T21:43:43.528Z,14.33
2018-10-19T21:46:11.401Z,13.10
2018-10-19T21:48:39.297Z,13.43
2018-10-19T21:51:07.132Z,12.93
2018-10-19T21:53:34.941Z,12.97
2018-10-19T21:56:02.824Z,12.97
2018-10-19T21:58:30.590Z,12.47
2018-10-19T22:00:58.426Z,12.50
2018-10-19T22:03:30.204Z,14.33
2018-10-19T22:05:58.027Z,12.53
2018-10-19T22:08:25.901Z,12.67
2018-10-19T22:10:53.687Z,12.23
2018-10-19T22:13:22.459Z,13.67
2018-10-19T22:15:50.610Z,11.83
2018-10-19T22:18:18.434Z,13.03
2018-10-19T22:20:46.232Z,13.83
2018-10-19T22:23:14.141Z,13.20
2018-10-19T22:25:41.889Z,12.67
2018-10-19T22:28:09.669Z,12.60
2018-10-19T22:30:37.484Z,11.83
2018-10-19T22:33:05.321Z,13.27
2018-10-19T22:35:33.057Z,13.27
2018-10-19T22:38:00.921Z,13.20
2018-10-19T22:40:29.445Z,13.03
2018-10-19T22:42:57.287Z,13.13
2018-10-19T22:45:25.051Z,12.93
2018-10-19T22:47:52.817Z,13.13
2018-10-19T22:50:20.603Z,13.57
2018-10-19T22:52:48.372Z,13.77
2018-10-19T22:55:16.340Z,13.03
2018-10-19T22:57:44.066Z,14.13
2018-10-19T23:00:11.917Z,12.17
2018-10-19T23:02:40.398Z,13.17
2018-10-19T23:05:08.289Z,12.03
2018-10-19T23:07:36.128Z,13.57
2018-10-19T23:10:05.368Z,12.07
2018-10-19T23:12:33.192Z,12.67
2018-10-19T23:15:00.957Z,12.20
2018-10-19T23:17:28.756Z,12.80
2018-10-19T23:19:56.514Z,12.07
2018-10-19T23:22:24.288Z,12.80
2018-10-19T23:24:52.390Z,11.73
2018-10-19T23:27:20.155Z,12.17
2018-10-19T23:29:47.988Z,12.13
2018-10-19T23:32:15.818Z,12.00
2018-10-19T23:34:43.646Z,10.97
2018-10-19T23:37:11.757Z,11.03
2018-10-19T23:39:39.532Z,12.60
2018-10-19T23:42:07.355Z,11.73
2018-10-19T23:44:35.162Z,11.57
2018-10-19T23:47:03.077Z,11.97
2018-10-19T23:49:31.471Z,12.30
2018-10-19T23:51:59.288Z,12.23
2018-10-19T23:54:27.136Z,10.97
2018-10-19T23:56:54.964Z,11.07
2018-10-19T23:59:22.722Z,10.60
